createdAt,value
2023-03-27T00:00:48.594Z,995.21
2023-03-27T00:01:48.652Z,995.19
2023-03-27T00:02:48.682Z,995.22
2023-03-27T00:03:48.664Z,995.21
2023-03-27T00:04:48.545Z,995.29
2023-03-27T00:05:48.523Z,995.29
2023-03-27T00:06:48.501Z,995.31
2023-03-27T00:07:48.503Z,995.38
2023-03-27T00:08:48.472Z,995.37
2023-03-27T00:09:48.486Z,995.36
2023-03-27T00:10:48.458Z,995.44
2023-03-27T00:11:48.442Z,995.49
2023-03-27T00:12:48.422Z,995.43
2023-03-27T00:13:50.259Z,995.49
2023-03-27T00:14:48.411Z,995.48
2023-03-27T00:15:48.383Z,995.52
2023-03-27T00:16:48.393Z,995.53
2023-03-27T00:17:48.395Z,995.50
2023-03-27T00:18:48.342Z,995.52
2023-03-27T00:19:48.354Z,995.52
2023-03-27T00:20:48.322Z,995.55
2023-03-27T00:21:48.303Z,995.56
2023-03-27T00:22:48.292Z,995.60
2023-03-27T00:23:48.272Z,995.59
2023-03-27T00:24:48.277Z,995.63
2023-03-27T00:25:48.261Z,995.64
2023-03-27T00:26:48.229Z,995.66
2023-03-27T00:27:48.223Z,995.75
2023-03-27T00:28:48.198Z,995.75
2023-03-27T00:29:48.209Z,995.82
2023-03-27T00:30:48.281Z,995.85
2023-03-27T00:31:48.171Z,995.80
2023-03-27T00:32:48.188Z,995.80
2023-03-27T00:33:48.146Z,995.83
2023-03-27T00:34:48.146Z,995.85
2023-03-27T00:35:48.141Z,995.92
2023-03-27T00:36:48.097Z,995.98
2023-03-27T00:37:48.093Z,996.02
2023-03-27T00:38:48.069Z,996.01
2023-03-27T00:39:48.116Z,996.03
2023-03-27T00:40:48.077Z,996.08
2023-03-27T00:41:48.046Z,996.09
2023-03-27T00:42:48.021Z,996.09
2023-03-27T00:43:48.011Z,996.10
2023-03-27T00:44:48.018Z,996.13
2023-03-27T00:45:47.982Z,996.14
2023-03-27T00:46:48.001Z,996.18
2023-03-27T00:47:47.988Z,996.21
2023-03-27T00:48:47.956Z,996.24
2023-03-27T00:49:47.954Z,996.25
2023-03-27T00:50:47.923Z,996.30
2023-03-27T00:51:47.898Z,996.29
2023-03-27T00:52:47.925Z,996.26
2023-03-27T00:53:47.877Z,996.30
2023-03-27T00:54:47.882Z,996.30
2023-03-27T00:55:47.855Z,996.29
2023-03-27T00:56:47.835Z,996.34
2023-03-27T00:57:47.826Z,996.30
2023-03-27T00:58:47.815Z,996.38
2023-03-27T00:59:47.821Z,996.41
2023-03-27T01:00:47.791Z,996.42
2023-03-27T01:01:47.853Z,996.49
2023-03-27T01:02:47.876Z,996.47
2023-03-27T01:03:47.867Z,996.48
2023-03-27T01:04:47.746Z,996.52
2023-03-27T01:05:47.718Z,996.53
2023-03-27T01:06:47.698Z,996.57
2023-03-27T01:08:00.628Z,996.54
2023-03-27T01:08:48.664Z,996.60
2023-03-27T01:09:47.686Z,996.65
2023-03-27T01:10:47.677Z,996.63
2023-03-27T01:11:47.647Z,996.67
2023-03-27T01:12:47.624Z,996.64
2023-03-27T01:13:47.620Z,996.65
2023-03-27T01:14:47.604Z,996.68
2023-03-27T01:15:47.602Z,996.68
2023-03-27T01:16:47.571Z,996.74
2023-03-27T01:17:47.581Z,996.73
2023-03-27T01:18:47.548Z,996.75
2023-03-27T01:19:47.548Z,996.73
2023-03-27T01:20:47.518Z,996.81
2023-03-27T01:21:47.505Z,996.83
2023-03-27T01:22:47.486Z,996.82
2023-03-27T01:24:00.217Z,996.85
2023-03-27T01:24:48.492Z,996.86
2023-03-27T01:25:47.445Z,996.85
2023-03-27T01:26:47.475Z,996.84
2023-03-27T01:27:47.479Z,996.91
2023-03-27T01:28:47.429Z,996.91
2023-03-27T01:29:47.408Z,996.95
2023-03-27T01:30:47.384Z,996.96
2023-03-27T01:31:47.424Z,996.94
2023-03-27T01:32:47.384Z,996.98
2023-03-27T01:33:47.336Z,996.97
2023-03-27T01:34:47.334Z,997.08
2023-03-27T01:35:48.370Z,997.14
2023-03-27T01:36:47.295Z,997.09
2023-03-27T01:37:47.318Z,997.15
2023-03-27T01:38:47.267Z,997.17
2023-03-27T01:39:47.279Z,997.18
2023-03-27T01:40:47.257Z,997.15
2023-03-27T01:41:47.241Z,997.16
2023-03-27T01:42:47.245Z,997.22
2023-03-27T01:43:47.266Z,997.20
2023-03-27T01:44:47.198Z,997.18
2023-03-27T01:45:47.220Z,997.18
2023-03-27T01:46:47.244Z,997.22
2023-03-27T01:47:47.178Z,997.21
2023-03-27T01:48:47.137Z,997.23
2023-03-27T01:49:47.164Z,997.24
2023-03-27T01:50:47.146Z,997.27
2023-03-27T01:51:47.106Z,997.28
2023-03-27T01:52:47.113Z,997.28
2023-03-27T01:53:47.106Z,997.28
2023-03-27T01:54:47.089Z,997.32
2023-03-27T01:55:47.131Z,997.41
2023-03-27T01:56:47.062Z,997.38
2023-03-27T01:57:49.346Z,997.41
2023-03-27T01:58:47.006Z,997.51
2023-03-27T01:59:47.005Z,997.52
2023-03-27T02:00:52.901Z,997.53
2023-03-27T02:01:48.029Z,997.46
2023-03-27T02:02:46.984Z,997.52
2023-03-27T02:03:46.936Z,997.58
2023-03-27T02:04:47.085Z,997.60
2023-03-27T02:05:46.941Z,997.59
2023-03-27T02:06:46.898Z,997.60
2023-03-27T02:07:46.893Z,997.62
2023-03-27T02:08:46.866Z,997.62
2023-03-27T02:09:46.865Z,997.62
2023-03-27T02:10:46.874Z,997.62
2023-03-27T02:11:46.842Z,997.64
2023-03-27T02:12:46.823Z,997.71
2023-03-27T02:13:46.820Z,997.71
2023-03-27T02:14:46.791Z,997.69
2023-03-27T02:15:46.800Z,997.72
2023-03-27T02:16:46.801Z,997.72
2023-03-27T02:17:46.780Z,997.76
2023-03-27T02:18:46.742Z,997.75
2023-03-27T02:19:46.733Z,997.78
2023-03-27T02:20:46.743Z,997.81
2023-03-27T02:21:46.704Z,997.85
2023-03-27T02:22:46.687Z,997.92
2023-03-27T02:23:46.685Z,997.94
2023-03-27T02:24:46.664Z,997.88
2023-03-27T02:25:46.684Z,997.91
2023-03-27T02:26:46.641Z,997.93
2023-03-27T02:27:46.636Z,997.95
2023-03-27T02:28:46.606Z,997.95
2023-03-27T02:29:46.607Z,998.00
2023-03-27T02:30:46.609Z,997.97
2023-03-27T02:31:47.626Z,998.05
2023-03-27T02:32:46.630Z,998.08
2023-03-27T02:33:46.554Z,998.04
2023-03-27T02:34:46.528Z,998.10
2023-03-27T02:35:46.587Z,998.14
2023-03-27T02:36:46.515Z,998.21
2023-03-27T02:37:46.493Z,998.17
2023-03-27T02:38:46.482Z,998.22
2023-03-27T02:39:46.476Z,998.23
2023-03-27T02:40:46.461Z,998.25
2023-03-27T02:41:46.453Z,998.30
2023-03-27T02:42:46.422Z,998.32
2023-03-27T02:43:46.423Z,998.35
2023-03-27T02:44:47.399Z,998.32
2023-03-27T02:45:46.475Z,998.35
2023-03-27T02:46:46.375Z,998.39
2023-03-27T02:47:46.421Z,998.37
2023-03-27T02:48:46.361Z,998.39
2023-03-27T02:49:46.338Z,998.39
2023-03-27T02:50:46.327Z,998.39
2023-03-27T02:51:46.362Z,998.39
2023-03-27T02:52:46.294Z,998.49
2023-03-27T02:53:46.292Z,998.46
2023-03-27T02:54:46.265Z,998.47
2023-03-27T02:55:46.261Z,998.45
2023-03-27T02:56:46.302Z,998.50
2023-03-27T02:57:51.625Z,998.52
2023-03-27T02:58:47.210Z,998.56
2023-03-27T02:59:46.224Z,998.54
2023-03-27T03:00:46.192Z,998.61
2023-03-27T03:01:46.250Z,998.57
2023-03-27T03:02:46.242Z,998.60
2023-03-27T03:03:46.163Z,998.65
2023-03-27T03:04:46.159Z,998.61
2023-03-27T03:05:46.128Z,998.71
2023-03-27T03:06:46.126Z,998.75
2023-03-27T03:07:46.100Z,998.74
2023-03-27T03:08:46.088Z,998.76
2023-03-27T03:09:46.076Z,998.75
2023-03-27T03:10:46.162Z,998.80
2023-03-27T03:11:46.073Z,998.78
2023-03-27T03:12:46.039Z,998.78
2023-03-27T03:13:46.024Z,998.81
2023-03-27T03:14:46.015Z,998.77
2023-03-27T03:15:46.014Z,998.86
2023-03-27T03:16:46.021Z,998.87
2023-03-27T03:17:46.054Z,998.95
2023-03-27T03:18:45.966Z,998.92
2023-03-27T03:19:45.941Z,998.96
2023-03-27T03:20:45.947Z,998.97
2023-03-27T03:21:45.940Z,999.00
2023-03-27T03:22:45.900Z,999.04
2023-03-27T03:23:57.862Z,999.04
2023-03-27T03:24:46.875Z,999.18
2023-03-27T03:25:45.885Z,999.13
2023-03-27T03:26:45.886Z,999.16
2023-03-27T03:27:45.842Z,999.20
2023-03-27T03:29:01.035Z,999.20
2023-03-27T03:29:46.807Z,999.28
2023-03-27T03:30:45.845Z,999.24
2023-03-27T03:31:45.818Z,999.22
2023-03-27T03:32:45.808Z,999.32
2023-03-27T03:33:45.755Z,999.32
2023-03-27T03:34:45.744Z,999.35
2023-03-27T03:35:45.754Z,999.32
2023-03-27T03:36:45.735Z,999.37
2023-03-27T03:37:45.708Z,999.37
2023-03-27T03:38:45.690Z,999.40
2023-03-27T03:39:45.685Z,999.48
2023-03-27T03:40:45.677Z,999.47
2023-03-27T03:41:45.675Z,999.51
2023-03-27T03:42:45.638Z,999.50
2023-03-27T03:43:45.627Z,999.51
2023-03-27T03:44:45.604Z,999.51
2023-03-27T03:45:45.599Z,999.54
2023-03-27T03:46:45.592Z,999.58
2023-03-27T03:47:45.611Z,999.56
2023-03-27T03:48:45.553Z,999.53
2023-03-27T03:49:45.552Z,999.56
2023-03-27T03:50:45.538Z,999.61
2023-03-27T03:51:45.529Z,999.58
2023-03-27T03:52:45.509Z,999.59
2023-03-27T03:53:45.487Z,999.61
2023-03-27T03:54:46.739Z,999.65
2023-03-27T03:55:45.477Z,999.70
2023-03-27T03:56:45.523Z,999.69
2023-03-27T03:57:45.431Z,999.71
2023-03-27T03:58:45.423Z,999.76
2023-03-27T03:59:45.412Z,999.74
2023-03-27T04:00:45.405Z,999.84
2023-03-27T04:01:45.414Z,999.82
2023-03-27T04:02:45.495Z,999.83
2023-03-27T04:03:45.456Z,999.81
2023-03-27T04:04:46.645Z,999.79
2023-03-27T04:05:45.328Z,999.83
2023-03-27T04:06:45.316Z,999.90
2023-03-27T04:07:45.452Z,999.89
2023-03-27T04:08:45.291Z,999.93
2023-03-27T04:09:45.269Z,999.90
2023-03-27T04:10:45.266Z,999.94
2023-03-27T04:11:45.252Z,999.95
2023-03-27T04:12:45.307Z,999.95
2023-03-27T04:13:45.216Z,999.98
2023-03-27T04:14:45.214Z,999.97
2023-03-27T04:15:45.281Z,999.95
2023-03-27T04:16:45.179Z,999.98
2023-03-27T04:17:45.373Z,1000.07
2023-03-27T04:18:45.321Z,1000.08
2023-03-27T04:19:45.144Z,1000.04
2023-03-27T04:20:45.143Z,1000.10
2023-03-27T04:21:45.119Z,1000.12
2023-03-27T04:22:45.299Z,1000.13
2023-03-27T04:23:45.101Z,1000.14
2023-03-27T04:24:45.079Z,1000.17
2023-03-27T04:25:45.066Z,1000.17
2023-03-27T04:26:45.058Z,1000.23
2023-03-27T04:27:45.045Z,1000.23
2023-03-27T04:28:45.041Z,1000.25
2023-03-27T04:29:45.011Z,1000.33
2023-03-27T04:30:45.007Z,1000.35
2023-03-27T04:31:45.006Z,1000.35
2023-03-27T04:32:45.062Z,1000.37
2023-03-27T04:33:44.960Z,1000.41
2023-03-27T04:34:44.949Z,1000.42
2023-03-27T04:35:44.946Z,1000.41
2023-03-27T04:36:45.109Z,1000.39
2023-03-27T04:37:44.934Z,1000.48
2023-03-27T04:38:44.900Z,1000.49
2023-03-27T04:39:44.913Z,1000.52
2023-03-27T04:40:44.876Z,1000.53
2023-03-27T04:41:44.855Z,1000.53
2023-03-27T04:42:44.897Z,1000.54
2023-03-27T04:43:44.826Z,1000.51
2023-03-27T04:44:44.816Z,1000.50
2023-03-27T04:45:44.809Z,1000.51
2023-03-27T04:46:44.843Z,1000.55
2023-03-27T04:47:44.813Z,1000.55
2023-03-27T04:48:44.769Z,1000.54
2023-03-27T04:49:44.754Z,1000.51
2023-03-27T04:50:44.740Z,1000.54
2023-03-27T04:51:44.721Z,1000.60
2023-03-27T04:52:44.737Z,1000.58
2023-03-27T04:53:44.704Z,1000.62
2023-03-27T04:54:44.690Z,1000.62
2023-03-27T04:55:44.704Z,1000.67
2023-03-27T04:56:44.690Z,1000.72
2023-03-27T04:57:44.670Z,1000.68
2023-03-27T04:58:44.645Z,1000.71
2023-03-27T04:59:44.625Z,1000.72
2023-03-27T05:00:44.645Z,1000.73
2023-03-27T05:01:44.653Z,1000.75
2023-03-27T05:02:44.766Z,1000.80
2023-03-27T05:03:44.594Z,1000.82
2023-03-27T05:04:44.549Z,1000.84
2023-03-27T05:05:44.534Z,1000.84
2023-03-27T05:06:44.527Z,1000.85
2023-03-27T05:07:44.554Z,1000.87
2023-03-27T05:08:44.569Z,1000.93
2023-03-27T05:09:44.502Z,1000.93
2023-03-27T05:10:44.482Z,1000.93
2023-03-27T05:11:44.460Z,1000.99
2023-03-27T05:12:44.445Z,1000.98
2023-03-27T05:13:44.479Z,1001.00
2023-03-27T05:14:44.421Z,1001.05
2023-03-27T05:15:44.394Z,1001.04
2023-03-27T05:16:44.511Z,1001.07
2023-03-27T05:17:44.396Z,1001.11
2023-03-27T05:18:44.397Z,1001.08
2023-03-27T05:19:44.364Z,1001.08
2023-03-27T05:20:44.349Z,1001.19
2023-03-27T05:21:44.337Z,1001.20
2023-03-27T05:22:44.357Z,1001.20
2023-03-27T05:23:44.319Z,1001.27
2023-03-27T05:24:44.290Z,1001.29
2023-03-27T05:25:44.367Z,1001.29
2023-03-27T05:26:44.250Z,1001.32
2023-03-27T05:27:44.524Z,1001.37
2023-03-27T05:28:44.250Z,1001.38
2023-03-27T05:29:46.369Z,1001.44
2023-03-27T05:30:44.300Z,1001.45
2023-03-27T05:31:44.199Z,1001.46
2023-03-27T05:32:44.243Z,1001.52
2023-03-27T05:33:44.290Z,1001.53
2023-03-27T05:34:44.163Z,1001.54
2023-03-27T05:35:44.170Z,1001.55
2023-03-27T05:36:44.129Z,1001.57
2023-03-27T05:37:44.123Z,1001.53
2023-03-27T05:38:44.117Z,1001.55
2023-03-27T05:39:44.094Z,1001.54
2023-03-27T05:40:44.110Z,1001.63
2023-03-27T05:41:44.073Z,1001.62
2023-03-27T05:42:44.072Z,1001.69
2023-03-27T05:43:44.062Z,1001.71
2023-03-27T05:44:44.037Z,1001.73
2023-03-27T05:45:44.041Z,1001.75
2023-03-27T05:46:44.083Z,1001.75
2023-03-27T05:47:44.027Z,1001.79
2023-03-27T05:48:43.975Z,1001.77
2023-03-27T05:49:43.950Z,1001.77
2023-03-27T05:50:43.955Z,1001.83
2023-03-27T05:51:47.310Z,1001.82
2023-03-27T05:52:43.911Z,1001.83
2023-03-27T05:53:43.908Z,1001.86
2023-03-27T05:54:43.868Z,1001.86
2023-03-27T05:55:43.874Z,1001.88
2023-03-27T05:56:43.874Z,1001.87
2023-03-27T05:57:43.858Z,1001.88
2023-03-27T05:58:43.842Z,1001.93
2023-03-27T05:59:43.834Z,1001.96
2023-03-27T06:00:43.834Z,1001.95
2023-03-27T06:01:43.800Z,1001.96
2023-03-27T06:02:43.984Z,1001.97
2023-03-27T06:03:43.892Z,1002.02
2023-03-27T06:04:43.804Z,1002.03
2023-03-27T06:05:43.746Z,1002.05
2023-03-27T06:06:43.750Z,1002.02
2023-03-27T06:07:43.920Z,1002.07
2023-03-27T06:08:43.736Z,1002.03
2023-03-27T06:09:43.711Z,1002.08
2023-03-27T06:10:43.705Z,1002.07
2023-03-27T06:11:43.669Z,1002.09
2023-03-27T06:12:43.653Z,1002.11
2023-03-27T06:13:43.671Z,1002.14
2023-03-27T06:14:43.648Z,1002.14
2023-03-27T06:15:43.689Z,1002.14
2023-03-27T06:16:43.618Z,1002.14
2023-03-27T06:17:43.628Z,1002.20
2023-03-27T06:18:43.586Z,1002.20
2023-03-27T06:19:43.716Z,1002.21
2023-03-27T06:20:43.561Z,1002.25
2023-03-27T06:21:43.608Z,1002.24
2023-03-27T06:22:43.530Z,1002.33
2023-03-27T06:23:43.517Z,1002.22
2023-03-27T06:24:43.512Z,1002.26
2023-03-27T06:25:43.487Z,1002.27
2023-03-27T06:26:43.481Z,1002.31
2023-03-27T06:27:43.458Z,1002.35
2023-03-27T06:28:43.525Z,1002.35
2023-03-27T06:29:43.446Z,1002.37
2023-03-27T06:30:43.434Z,1002.40
2023-03-27T06:31:43.552Z,1002.45
2023-03-27T06:32:43.601Z,1002.40
2023-03-27T06:33:43.391Z,1002.50
2023-03-27T06:34:43.417Z,1002.48
2023-03-27T06:35:43.459Z,1002.49
2023-03-27T06:36:44.350Z,1002.50
2023-03-27T06:37:43.415Z,1002.50
2023-03-27T06:38:43.327Z,1002.55
2023-03-27T06:39:43.324Z,1002.56
2023-03-27T06:40:43.298Z,1002.54
2023-03-27T06:41:43.342Z,1002.55
2023-03-27T06:42:43.474Z,1002.62
2023-03-27T06:43:43.267Z,1002.61
2023-03-27T06:44:43.334Z,1002.63
2023-03-27T06:45:43.237Z,1002.65
2023-03-27T06:46:45.803Z,1002.62
2023-03-27T06:47:53.828Z,1002.62
2023-03-27T06:48:44.298Z,1002.63
2023-03-27T06:49:43.194Z,1002.62
2023-03-27T06:50:43.369Z,1002.65
2023-03-27T06:51:43.157Z,1002.65
2023-03-27T06:52:43.168Z,1002.62
2023-03-27T06:53:43.131Z,1002.67
2023-03-27T06:54:43.152Z,1002.64
2023-03-27T06:55:43.096Z,1002.67
2023-03-27T06:56:43.128Z,1002.65
2023-03-27T06:57:43.101Z,1002.74
2023-03-27T06:58:43.109Z,1002.72
2023-03-27T06:59:43.117Z,1002.75
2023-03-27T07:00:43.060Z,1002.76
2023-03-27T07:01:43.096Z,1002.79
2023-03-27T07:02:43.030Z,1002.82
2023-03-27T07:03:42.999Z,1002.79
2023-03-27T07:04:51.099Z,1002.80
2023-03-27T07:05:44.051Z,1002.82
2023-03-27T07:06:42.952Z,1002.85
2023-03-27T07:07:42.971Z,1002.82
2023-03-27T07:08:42.969Z,1002.84
2023-03-27T07:09:42.944Z,1002.86
2023-03-27T07:10:42.945Z,1002.87
2023-03-27T07:11:42.933Z,1002.90
2023-03-27T07:12:42.878Z,1002.96
2023-03-27T07:13:42.874Z,1002.96
2023-03-27T07:14:42.864Z,1002.96
2023-03-27T07:15:42.824Z,1003.01
2023-03-27T07:16:42.877Z,1003.04
2023-03-27T07:17:48.725Z,1003.07
2023-03-27T07:18:43.785Z,1003.10
2023-03-27T07:19:42.784Z,1003.13
2023-03-27T07:20:42.790Z,1003.13
2023-03-27T07:21:42.748Z,1003.18
2023-03-27T07:22:42.807Z,1003.23
2023-03-27T07:23:42.727Z,1003.25
2023-03-27T07:24:42.736Z,1003.29
2023-03-27T07:25:42.974Z,1003.26
2023-03-27T07:26:42.691Z,1003.26
2023-03-27T07:27:42.669Z,1003.27
2023-03-27T07:28:42.669Z,1003.27
2023-03-27T07:29:42.659Z,1003.29
2023-03-27T07:30:42.645Z,1003.31
2023-03-27T07:32:43.784Z,1003.31
2023-03-27T07:33:42.736Z,1003.31
2023-03-27T07:34:42.719Z,1003.31
2023-03-27T07:35:42.643Z,1003.34
2023-03-27T07:36:42.548Z,1003.29
2023-03-27T07:37:42.534Z,1003.31
2023-03-27T07:38:42.522Z,1003.35
2023-03-27T07:39:42.524Z,1003.35
2023-03-27T07:40:42.498Z,1003.35
2023-03-27T07:41:42.504Z,1003.39
2023-03-27T07:42:42.476Z,1003.39
2023-03-27T07:43:42.481Z,1003.43
2023-03-27T07:44:42.473Z,1003.42
2023-03-27T07:45:42.464Z,1003.45
2023-03-27T07:46:42.432Z,1003.46
2023-03-27T07:47:42.419Z,1003.51
2023-03-27T07:48:42.396Z,1003.50
2023-03-27T07:49:42.401Z,1003.57
2023-03-27T07:50:42.374Z,1003.60
2023-03-27T07:51:42.359Z,1003.60
2023-03-27T07:52:42.362Z,1003.62
2023-03-27T07:53:42.475Z,1003.57
2023-03-27T07:54:42.335Z,1003.56
2023-03-27T07:55:42.328Z,1003.58
2023-03-27T07:56:42.403Z,1003.61
2023-03-27T07:57:57.248Z,1003.60
2023-03-27T07:58:43.341Z,1003.65
2023-03-27T07:59:42.265Z,1003.62
2023-03-27T08:00:42.237Z,1003.59
2023-03-27T08:01:42.223Z,1003.61
2023-03-27T08:02:42.263Z,1003.63
2023-03-27T08:03:42.526Z,1003.66
2023-03-27T08:04:42.283Z,1003.68
2023-03-27T08:05:42.192Z,1003.66
2023-03-27T08:06:42.153Z,1003.68
2023-03-27T08:07:42.139Z,1003.72
2023-03-27T08:08:42.126Z,1003.72
2023-03-27T08:09:42.114Z,1003.80
2023-03-27T08:10:42.119Z,1003.76
2023-03-27T08:11:42.089Z,1003.76
2023-03-27T08:12:42.070Z,1003.76
2023-03-27T08:13:42.068Z,1003.77
2023-03-27T08:14:42.079Z,1003.74
2023-03-27T08:15:42.052Z,1003.70
2023-03-27T08:16:42.069Z,1003.74
2023-03-27T08:17:42.094Z,1003.73
2023-03-27T08:18:42.003Z,1003.76
2023-03-27T08:19:41.980Z,1003.76
2023-03-27T08:20:42.011Z,1003.80
2023-03-27T08:21:41.954Z,1003.76
2023-03-27T08:22:41.953Z,1003.80
2023-03-27T08:23:41.944Z,1003.84
2023-03-27T08:24:41.921Z,1003.83
2023-03-27T08:25:42.040Z,1003.85
2023-03-27T08:26:45.937Z,1003.87
2023-03-27T08:27:42.975Z,1003.91
2023-03-27T08:28:43.321Z,1003.92
2023-03-27T08:29:42.146Z,1003.91
2023-03-27T08:30:42.687Z,1003.89
2023-03-27T08:31:42.124Z,1003.84
2023-03-27T08:32:42.968Z,1003.85
2023-03-27T08:33:42.119Z,1003.96
2023-03-27T08:34:42.479Z,1003.95
2023-03-27T08:35:42.303Z,1003.97
2023-03-27T08:36:42.678Z,1003.97
2023-03-27T08:37:42.065Z,1004.01
2023-03-27T08:38:42.528Z,1003.98
2023-03-27T08:39:42.159Z,1003.98
2023-03-27T08:40:42.683Z,1004.00
2023-03-27T08:41:42.897Z,1003.99
2023-03-27T08:42:44.191Z,1004.01
2023-03-27T08:43:42.974Z,1004.00
2023-03-27T08:44:42.184Z,1004.10
2023-03-27T08:45:42.402Z,1004.10
2023-03-27T08:46:42.312Z,1004.07
2023-03-27T08:47:43.318Z,1004.10
2023-03-27T08:48:41.599Z,1004.14
2023-03-27T08:49:41.590Z,1004.15
2023-03-27T08:50:41.584Z,1004.12
2023-03-27T08:51:41.551Z,1004.11
2023-03-27T08:52:41.547Z,1004.13
2023-03-27T08:53:41.555Z,1004.14
2023-03-27T08:54:41.519Z,1004.16
2023-03-27T08:55:41.632Z,1004.16
2023-03-27T08:56:41.527Z,1004.12
2023-03-27T08:57:41.479Z,1004.14
2023-03-27T08:58:41.467Z,1004.19
2023-03-27T08:59:41.451Z,1004.13
2023-03-27T09:00:41.450Z,1004.13
2023-03-27T09:01:41.534Z,1004.18
2023-03-27T09:02:41.509Z,1004.19
2023-03-27T09:03:41.479Z,1004.20
2023-03-27T09:04:41.381Z,1004.20
2023-03-27T09:05:41.377Z,1004.21
2023-03-27T09:06:41.353Z,1004.20
2023-03-27T09:07:41.341Z,1004.23
2023-03-27T09:08:41.319Z,1004.25
2023-03-27T09:09:41.321Z,1004.28
2023-03-27T09:10:41.328Z,1004.36
2023-03-27T09:11:41.289Z,1004.36
2023-03-27T09:12:42.044Z,1004.27
2023-03-27T09:13:41.263Z,1004.31
2023-03-27T09:14:41.241Z,1004.25
2023-03-27T09:15:41.265Z,1004.26
2023-03-27T09:16:41.251Z,1004.34
2023-03-27T09:17:41.244Z,1004.34
2023-03-27T09:18:41.221Z,1004.28
2023-03-27T09:19:41.182Z,1004.27
2023-03-27T09:20:41.202Z,1004.28
2023-03-27T09:21:41.155Z,1004.27
2023-03-27T09:22:41.173Z,1004.30
2023-03-27T09:23:41.123Z,1004.30
2023-03-27T09:24:41.137Z,1004.34
2023-03-27T09:25:41.132Z,1004.37
2023-03-27T09:26:41.092Z,1004.39
2023-03-27T09:27:41.078Z,1004.42
2023-03-27T09:28:41.072Z,1004.41
2023-03-27T09:29:41.075Z,1004.41
2023-03-27T09:30:41.065Z,1004.41
2023-03-27T09:31:41.077Z,1004.36
2023-03-27T09:32:41.052Z,1004.35
2023-03-27T09:33:41.021Z,1004.37
2023-03-27T09:34:40.981Z,1004.43
2023-03-27T09:35:41.193Z,1004.36
2023-03-27T09:36:40.982Z,1004.45
2023-03-27T09:37:40.940Z,1004.48
2023-03-27T09:38:40.935Z,1004.46
2023-03-27T09:39:40.949Z,1004.39
2023-03-27T09:40:40.923Z,1004.46
2023-03-27T09:41:40.902Z,1004.44
2023-03-27T09:42:40.959Z,1004.52
2023-03-27T09:43:40.879Z,1004.51
2023-03-27T09:44:40.852Z,1004.46
2023-03-27T09:45:40.884Z,1004.50
2023-03-27T09:46:40.953Z,1004.47
2023-03-27T09:47:40.911Z,1004.50
2023-03-27T09:48:40.800Z,1004.56
2023-03-27T09:49:40.805Z,1004.47
2023-03-27T09:50:40.773Z,1004.53
2023-03-27T09:51:40.785Z,1004.54
2023-03-27T09:52:40.754Z,1004.56
2023-03-27T09:53:40.747Z,1004.56
2023-03-27T09:54:40.726Z,1004.60
2023-03-27T09:55:40.714Z,1004.59
2023-03-27T09:56:40.733Z,1004.64
2023-03-27T09:57:40.684Z,1004.58
2023-03-27T09:58:40.794Z,1004.53
2023-03-27T09:59:40.651Z,1004.55
2023-03-27T10:00:40.682Z,1004.64
2023-03-27T10:01:40.651Z,1004.63
2023-03-27T10:02:40.665Z,1004.66
2023-03-27T10:03:40.688Z,1004.59
2023-03-27T10:04:40.583Z,1004.63
2023-03-27T10:05:40.583Z,1004.63
2023-03-27T10:06:40.592Z,1004.66
2023-03-27T10:07:40.572Z,1004.73
2023-03-27T10:08:40.549Z,1004.69
2023-03-27T10:09:40.605Z,1004.64
2023-03-27T10:10:40.533Z,1004.62
2023-03-27T10:11:40.526Z,1004.58
2023-03-27T10:12:40.501Z,1004.60
2023-03-27T10:13:40.477Z,1004.52
2023-03-27T10:14:40.455Z,1004.56
2023-03-27T10:15:40.470Z,1004.58
2023-03-27T10:16:40.517Z,1004.61
2023-03-27T10:17:40.549Z,1004.61
2023-03-27T10:18:40.415Z,1004.56
2023-03-27T10:19:40.402Z,1004.54
2023-03-27T10:20:40.384Z,1004.54
2023-03-27T10:21:40.386Z,1004.54
2023-03-27T10:22:40.357Z,1004.56
2023-03-27T10:23:40.407Z,1004.62
2023-03-27T10:24:44.388Z,1004.64
2023-03-27T10:25:41.331Z,1004.60
2023-03-27T10:26:40.327Z,1004.64
2023-03-27T10:27:40.293Z,1004.67
2023-03-27T10:28:40.318Z,1004.70
2023-03-27T10:29:41.254Z,1004.68
2023-03-27T10:30:40.255Z,1004.76
2023-03-27T10:31:40.307Z,1004.80
2023-03-27T10:32:40.339Z,1004.81
2023-03-27T10:33:40.214Z,1004.74
2023-03-27T10:34:40.212Z,1004.71
2023-03-27T10:35:40.239Z,1005.13
2023-03-27T10:36:40.178Z,1004.77
2023-03-27T10:37:40.174Z,1004.84
2023-03-27T10:38:40.142Z,1004.73
2023-03-27T10:39:40.144Z,1004.82
2023-03-27T10:40:40.110Z,1004.76
2023-03-27T10:41:40.190Z,1004.75
2023-03-27T10:42:40.090Z,1004.96
2023-03-27T10:43:40.108Z,1004.74
2023-03-27T10:44:40.059Z,1004.76
2023-03-27T10:45:40.117Z,1004.85
2023-03-27T10:46:40.050Z,1004.80
2023-03-27T10:47:40.083Z,1004.82
2023-03-27T10:48:40.015Z,1004.85
2023-03-27T10:49:40.009Z,1004.82
2023-03-27T10:50:39.998Z,1004.87
2023-03-27T10:51:46.608Z,1004.85
2023-03-27T10:52:41.013Z,1004.90
2023-03-27T10:53:40.064Z,1004.87
2023-03-27T10:54:40.038Z,1004.88
2023-03-27T10:55:39.889Z,1004.90
2023-03-27T10:56:39.971Z,1005.00
2023-03-27T10:57:39.926Z,1004.87
2023-03-27T10:58:39.882Z,1004.95
2023-03-27T10:59:42.123Z,1004.90
2023-03-27T11:00:39.860Z,1004.95
2023-03-27T11:01:39.931Z,1004.89
2023-03-27T11:02:39.882Z,1004.90
2023-03-27T11:03:39.855Z,1004.86
2023-03-27T11:04:39.852Z,1004.91
2023-03-27T11:05:39.788Z,1004.94
2023-03-27T11:06:39.768Z,1004.93
2023-03-27T11:07:39.825Z,1004.90
2023-03-27T11:08:39.738Z,1004.83
2023-03-27T11:09:39.742Z,1004.95
2023-03-27T11:10:39.721Z,1004.99
2023-03-27T11:11:39.718Z,1004.94
2023-03-27T11:12:39.710Z,1004.89
2023-03-27T11:13:39.688Z,1004.88
2023-03-27T11:14:39.668Z,1004.97
2023-03-27T11:15:39.654Z,1005.03
2023-03-27T11:16:39.715Z,1005.06
2023-03-27T11:17:39.684Z,1005.12
2023-03-27T11:18:39.632Z,1005.19
2023-03-27T11:19:39.610Z,1005.24
2023-03-27T11:20:39.585Z,1005.16
2023-03-27T11:21:39.571Z,1005.18
2023-03-27T11:22:39.590Z,1005.13
2023-03-27T11:23:39.557Z,1005.14
2023-03-27T11:24:39.515Z,1005.20
2023-03-27T11:25:39.539Z,1005.17
2023-03-27T11:26:39.513Z,1005.14
2023-03-27T11:27:39.537Z,1005.14
2023-03-27T11:28:39.557Z,1005.13
2023-03-27T11:29:39.485Z,1005.11
2023-03-27T11:30:39.528Z,1005.13
2023-03-27T11:31:39.593Z,1005.16
2023-03-27T11:32:39.512Z,1005.11
2023-03-27T11:33:39.423Z,1005.08
2023-03-27T11:34:39.425Z,1005.06
2023-03-27T11:35:39.405Z,1005.03
2023-03-27T11:36:39.376Z,1005.07
2023-03-27T11:37:39.394Z,1005.07
2023-03-27T11:38:39.354Z,1005.08
2023-03-27T11:39:39.359Z,1005.03
2023-03-27T11:40:39.334Z,1005.05
2023-03-27T11:41:39.314Z,1005.05
2023-03-27T11:42:39.300Z,1005.02
2023-03-27T11:43:39.304Z,1005.04
2023-03-27T11:44:39.271Z,1005.07
2023-03-27T11:45:39.264Z,1005.08
2023-03-27T11:46:39.265Z,1005.09
2023-03-27T11:47:39.319Z,1005.10
2023-03-27T11:48:39.249Z,1005.11
2023-03-27T11:49:39.217Z,1005.20
2023-03-27T11:50:39.230Z,1005.13
2023-03-27T11:51:39.200Z,1005.20
2023-03-27T11:52:39.174Z,1005.12
2023-03-27T11:53:39.205Z,1005.39
2023-03-27T11:54:39.150Z,1005.28
2023-03-27T11:55:39.117Z,1005.40
2023-03-27T11:56:39.125Z,1005.44
2023-03-27T11:57:39.105Z,1005.46
2023-03-27T11:58:39.102Z,1005.54
2023-03-27T11:59:39.085Z,1005.47
2023-03-27T12:00:39.132Z,1005.45
2023-03-27T12:01:39.088Z,1005.47
2023-03-27T12:02:39.114Z,1005.54
2023-03-27T12:03:39.159Z,1005.50
2023-03-27T12:04:39.010Z,1005.36
2023-03-27T12:05:39.004Z,1005.44
2023-03-27T12:06:38.978Z,1005.40
2023-03-27T12:07:40.583Z,1005.36
2023-03-27T12:08:39.998Z,1005.36
2023-03-27T12:09:38.943Z,1005.34
2023-03-27T12:10:38.945Z,1005.38
2023-03-27T12:11:38.927Z,1005.38
2023-03-27T12:12:38.898Z,1005.31
2023-03-27T12:13:41.818Z,1005.27
2023-03-27T12:14:41.057Z,1005.25